Laporte, Minnesota
Current Conditions -  °F | °C
As of 1:15 PM on Monday 20 Oct 2014 (Local Time) from KY49 Reporting Station
Broken Clouds Broken Clouds  
Wind Chill: 51°   Ceiling: 2500
Heat Index: 51°   Visibility: 10mi
Dew Point: 39°   Wind: 7mph
Humidity: 63%   Direction: 350°N
Pressure: 30.03"   Gusts: NA
Location:  47.21°N, 94.75°W
Report Text: KY49 201815Z AUTO 35006KT 10SM BKN025 11/04 A3003 RMK AO2 T01070039
Loading
Personal Weather Stations






























Interactive Weather Map
Tropical Storm Tracking
New forecast layout! Learn more

10-Day Weather Forecast

Advertisements
Track Severe Weather on mobile